createdAt,value
2022-09-24T00:01:16.660Z,29.90
2022-09-24T00:03:50.152Z,24.55
2022-09-24T00:06:19.270Z,37.25
2022-09-24T00:08:47.551Z,37.60
2022-09-24T00:11:14.635Z,29.70
2022-09-24T00:13:41.763Z,28.73
2022-09-24T00:16:13.477Z,27.00
2022-09-24T00:18:40.962Z,33.10
2022-09-24T00:21:16.338Z,36.67
2022-09-24T00:23:43.446Z,42.92
2022-09-24T00:26:32.032Z,39.20
2022-09-24T00:28:59.328Z,37.47
2022-09-24T00:31:26.686Z,41.72
2022-09-24T00:33:54.372Z,37.28
2022-09-24T00:36:22.295Z,38.92
2022-09-24T00:38:54.195Z,41.13
2022-09-24T00:41:24.173Z,37.05
2022-09-24T00:43:51.546Z,34.50
2022-09-24T00:46:27.910Z,42.38
2022-09-24T00:48:58.743Z,42.35
2022-09-24T00:51:28.502Z,41.95
2022-09-24T00:53:59.993Z,29.52
2022-09-24T00:56:28.422Z,35.83
2022-09-24T00:58:57.217Z,37.17
2022-09-24T01:01:25.601Z,30.65
2022-09-24T01:03:55.471Z,30.23
2022-09-24T01:06:22.673Z,26.60
2022-09-24T01:08:49.512Z,31.13
2022-09-24T01:11:41.021Z,37.35
2022-09-24T01:14:39.224Z,33.83
2022-09-24T01:17:32.867Z,32.28
2022-09-24T01:20:26.812Z,34.58
2022-09-24T01:23:05.404Z,34.88
2022-09-24T01:26:02.923Z,38.92
2022-09-24T01:29:05.965Z,34.55
2022-09-24T01:31:44.556Z,41.85
2022-09-24T01:34:15.781Z,30.60
2022-09-24T01:36:45.350Z,34.13
2022-09-24T01:39:14.620Z,29.00
2022-09-24T01:41:43.159Z,35.45
2022-09-24T01:44:11.724Z,33.65
2022-09-24T01:46:40.241Z,33.28
2022-09-24T01:49:08.210Z,36.60
2022-09-24T01:51:44.056Z,32.72
2022-09-24T01:54:28.516Z,29.33
2022-09-24T01:57:13.298Z,35.83
2022-09-24T01:59:47.132Z,33.45
2022-09-24T02:02:30.494Z,38.03
2022-09-24T02:05:12.979Z,33.75
2022-09-24T02:07:47.047Z,34.45
2022-09-24T02:10:16.902Z,34.63
2022-09-24T02:12:47.149Z,34.13
2022-09-24T02:15:20.896Z,33.20
2022-09-24T02:17:53.572Z,31.27
2022-09-24T02:20:23.219Z,37.22
2022-09-24T02:22:51.714Z,31.67
2022-09-24T02:25:25.143Z,40.60
2022-09-24T02:27:51.814Z,35.30
2022-09-24T02:30:18.382Z,35.80
2022-09-24T02:32:45.074Z,34.17
2022-09-24T02:35:12.809Z,33.90
2022-09-24T02:37:42.414Z,31.15
2022-09-24T02:40:12.185Z,30.17
2022-09-24T02:42:41.102Z,34.85
2022-09-24T02:45:08.462Z,37.50
2022-09-24T02:47:35.019Z,34.63
2022-09-24T02:50:01.671Z,35.03
2022-09-24T02:52:28.220Z,28.85
2022-09-24T02:54:54.758Z,31.95
2022-09-24T02:57:21.245Z,39.55
2022-09-24T02:59:47.929Z,40.95
2022-09-24T03:02:15.392Z,31.77
2022-09-24T03:04:42.646Z,33.58
2022-09-24T03:07:10.291Z,35.38
2022-09-24T03:09:36.961Z,34.92
2022-09-24T03:12:05.224Z,36.75
2022-09-24T03:14:31.966Z,32.42
2022-09-24T03:16:58.690Z,31.42
2022-09-24T03:19:25.213Z,32.53
2022-09-24T03:21:51.741Z,34.88
2022-09-24T03:24:18.239Z,28.98
2022-09-24T03:26:45.354Z,36.95
2022-09-24T03:29:11.898Z,33.10
2022-09-24T03:31:38.501Z,26.63
2022-09-24T03:34:05.274Z,32.78
2022-09-24T03:36:31.869Z,31.25
2022-09-24T03:38:58.370Z,33.17
2022-09-24T03:41:27.508Z,31.90
2022-09-24T03:43:54.791Z,36.58
2022-09-24T03:46:22.109Z,39.30
2022-09-24T03:48:49.167Z,33.88
2022-09-24T03:51:20.297Z,32.25
2022-09-24T03:53:47.915Z,36.97
2022-09-24T03:56:15.632Z,34.88
2022-09-24T03:58:47.697Z,36.28
2022-09-24T04:01:14.519Z,39.90
2022-09-24T04:03:41.100Z,36.33
2022-09-24T04:06:07.915Z,39.22
2022-09-24T04:08:34.469Z,32.13
2022-09-24T04:11:01.094Z,30.77
2022-09-24T04:13:27.669Z,36.47
2022-09-24T04:15:55.124Z,41.92
2022-09-24T04:18:22.181Z,37.30
2022-09-24T04:20:48.837Z,34.85
2022-09-24T04:23:15.484Z,33.63
2022-09-24T04:25:42.371Z,37.97
2022-09-24T04:28:09.944Z,39.72
2022-09-24T04:30:38.159Z,36.58
2022-09-24T04:33:04.789Z,30.77
2022-09-24T04:35:36.006Z,31.05
2022-09-24T04:38:04.048Z,34.10
2022-09-24T04:40:31.434Z,33.13
2022-09-24T04:42:58.139Z,31.35
2022-09-24T04:45:25.115Z,25.17
2022-09-24T04:47:53.605Z,33.60
2022-09-24T04:50:20.660Z,32.05
2022-09-24T04:52:47.292Z,27.92
2022-09-24T04:55:14.188Z,31.38
2022-09-24T04:57:41.435Z,23.85
2022-09-24T05:00:15.353Z,49.03
2022-09-24T05:02:42.801Z,27.10
2022-09-24T05:05:11.001Z,22.65
2022-09-24T05:07:38.734Z,30.15
2022-09-24T05:10:06.761Z,28.30
2022-09-24T05:12:35.433Z,22.92
2022-09-24T05:15:02.590Z,23.90
2022-09-24T05:17:29.195Z,28.33
2022-09-24T05:19:57.893Z,24.75
2022-09-24T05:22:27.511Z,25.92
2022-09-24T05:24:54.528Z,30.35
2022-09-24T05:27:21.771Z,26.52
2022-09-24T05:29:48.286Z,24.13
2022-09-24T05:32:19.938Z,26.63
2022-09-24T05:34:46.769Z,25.80
2022-09-24T05:37:14.840Z,28.80
2022-09-24T05:39:41.814Z,24.30
2022-09-24T05:42:15.754Z,24.52
2022-09-24T05:44:48.628Z,28.35
2022-09-24T05:47:18.498Z,31.52
2022-09-24T05:49:45.214Z,24.90
2022-09-24T05:52:11.932Z,27.92
2022-09-24T05:54:38.467Z,24.23
2022-09-24T05:57:05.003Z,27.35
2022-09-24T05:59:32.291Z,23.08
2022-09-24T06:01:58.838Z,21.83
2022-09-24T06:04:25.490Z,27.80
2022-09-24T06:06:52.309Z,22.10
2022-09-24T06:09:18.825Z,25.60
2022-09-24T06:11:45.910Z,25.08
2022-09-24T06:14:13.314Z,21.90
2022-09-24T06:16:40.013Z,22.55
2022-09-24T06:19:06.701Z,23.92
2022-09-24T06:21:33.234Z,37.10
2022-09-24T06:23:59.779Z,21.90
2022-09-24T06:26:27.337Z,26.02
2022-09-24T06:28:54.379Z,23.95
2022-09-24T06:31:21.315Z,21.08
2022-09-24T06:33:48.154Z,23.83
2022-09-24T06:36:14.789Z,27.10
2022-09-24T06:38:41.933Z,26.60
2022-09-24T06:41:10.160Z,19.10
2022-09-24T06:43:37.497Z,20.55
2022-09-24T06:46:05.041Z,28.80
2022-09-24T06:48:32.209Z,26.63
2022-09-24T06:50:58.827Z,24.77
2022-09-24T06:53:26.063Z,23.73
2022-09-24T06:55:53.402Z,25.38
2022-09-24T06:58:21.037Z,23.63
2022-09-24T07:01:06.645Z,20.98
2022-09-24T07:03:35.005Z,17.90
2022-09-24T07:06:05.142Z,23.42
2022-09-24T07:08:32.108Z,23.38
2022-09-24T07:10:59.025Z,25.65
2022-09-24T07:13:25.691Z,21.25
2022-09-24T07:15:52.899Z,29.23
2022-09-24T07:18:20.514Z,29.65
2022-09-24T07:20:54.752Z,20.75
2022-09-24T07:23:21.889Z,21.42
2022-09-24T07:25:49.333Z,22.83
2022-09-24T07:28:16.921Z,27.02
2022-09-24T07:30:43.631Z,28.63
2022-09-24T07:33:10.214Z,21.40
2022-09-24T07:35:40.022Z,15.85
2022-09-24T07:38:12.086Z,19.65
2022-09-24T07:43:06.981Z,22.58
2022-09-24T07:45:34.041Z,19.58
2022-09-24T07:48:02.760Z,20.23
2022-09-24T07:50:32.427Z,19.92
2022-09-24T07:52:59.132Z,23.23
2022-09-24T07:55:26.113Z,18.17
2022-09-24T07:57:54.910Z,16.08
2022-09-24T08:00:22.928Z,22.77
2022-09-24T08:02:50.162Z,18.40
2022-09-24T08:05:18.170Z,19.90
2022-09-24T08:07:55.751Z,19.67
2022-09-24T08:10:23.147Z,18.88
2022-09-24T08:12:50.457Z,18.15
2022-09-24T08:15:17.144Z,20.02
2022-09-24T08:17:43.765Z,21.55
2022-09-24T08:20:10.764Z,26.08
2022-09-24T08:22:37.346Z,19.58
2022-09-24T08:25:04.815Z,16.48
2022-09-24T08:27:32.945Z,20.40
2022-09-24T08:30:00.710Z,21.48
2022-09-24T08:32:28.993Z,20.60
2022-09-24T08:34:55.560Z,22.77
2022-09-24T08:37:22.510Z,23.83
2022-09-24T08:39:49.113Z,26.30
2022-09-24T08:42:31.511Z,30.85
2022-09-24T08:45:17.344Z,19.35
2022-09-24T08:47:55.107Z,18.85
2022-09-24T08:50:29.278Z,22.67
2022-09-24T08:53:06.595Z,19.23
2022-09-24T08:55:49.941Z,21.13
2022-09-24T08:58:55.192Z,27.48
2022-09-24T09:01:38.906Z,26.50
2022-09-24T09:04:14.274Z,24.17
2022-09-24T09:07:06.409Z,18.88
2022-09-24T09:10:11.104Z,28.65
2022-09-24T09:12:42.571Z,19.35
2022-09-24T09:15:18.071Z,26.38
2022-09-24T09:18:05.095Z,25.25
2022-09-24T09:20:41.247Z,36.08
2022-09-24T09:23:13.941Z,35.38
2022-09-24T09:25:47.320Z,31.73
2022-09-24T09:28:15.606Z,39.58
2022-09-24T09:31:00.380Z,33.78
2022-09-24T09:33:47.928Z,36.88
2022-09-24T09:36:37.164Z,35.58
2022-09-24T09:39:59.109Z,33.33
2022-09-24T09:42:36.153Z,32.47
2022-09-24T09:45:07.537Z,36.50
2022-09-24T09:47:45.948Z,35.97
2022-09-24T09:50:27.540Z,35.10
2022-09-24T09:52:55.582Z,35.40
2022-09-24T09:55:26.401Z,28.95
2022-09-24T09:57:54.416Z,32.65
2022-09-24T10:00:27.603Z,27.20
2022-09-24T10:02:54.987Z,36.22
2022-09-24T10:05:27.361Z,25.15
2022-09-24T10:07:58.270Z,32.72
2022-09-24T10:10:28.952Z,26.20
2022-09-24T10:13:09.051Z,32.53
2022-09-24T10:15:49.085Z,31.02
2022-09-24T10:18:16.594Z,29.83
2022-09-24T10:20:48.224Z,33.83
2022-09-24T10:23:22.967Z,28.92
2022-09-24T10:25:59.881Z,23.85
2022-09-24T10:28:46.426Z,22.67
2022-09-24T10:31:29.603Z,25.52
2022-09-24T10:33:59.116Z,26.83
2022-09-24T10:36:32.649Z,20.85
2022-09-24T10:39:08.397Z,27.00
2022-09-24T10:41:36.006Z,20.23
2022-09-24T10:44:11.700Z,15.98
2022-09-24T10:46:56.940Z,20.05
2022-09-24T10:49:27.402Z,14.57
2022-09-24T10:52:10.274Z,16.98
2022-09-24T10:54:49.915Z,10.43
2022-09-24T10:57:39.713Z,13.00
2022-09-24T11:00:18.389Z,17.88
2022-09-24T11:02:58.041Z,16.40
2022-09-24T11:05:49.861Z,15.43
2022-09-24T11:08:46.943Z,11.85
2022-09-24T11:11:37.640Z,16.92
2022-09-24T11:14:23.764Z,12.90
2022-09-24T11:17:05.038Z,13.88
2022-09-24T11:19:46.759Z,15.73
2022-09-24T11:22:17.505Z,14.50
2022-09-24T11:24:53.369Z,16.10
2022-09-24T11:27:50.855Z,11.50
2022-09-24T11:30:24.915Z,15.40
2022-09-24T11:33:29.803Z,11.32
2022-09-24T11:36:13.693Z,12.15
2022-09-24T11:39:08.227Z,20.25
2022-09-24T11:41:37.423Z,11.57
2022-09-24T11:44:11.289Z,12.43
2022-09-24T11:46:48.874Z,13.32
2022-09-24T11:49:24.490Z,10.48
2022-09-24T11:52:11.512Z,15.18
2022-09-24T11:54:46.675Z,20.45
2022-09-24T11:57:27.948Z,13.75
2022-09-24T11:59:54.543Z,11.97
2022-09-24T12:02:30.372Z,10.23
2022-09-24T12:05:03.150Z,9.43
2022-09-24T12:07:40.385Z,15.00
2022-09-24T12:10:32.934Z,8.88
2022-09-24T12:13:14.513Z,10.80
2022-09-24T12:15:50.606Z,8.23
2022-09-24T12:18:54.185Z,9.95
2022-09-24T12:21:28.243Z,9.25
2022-09-24T12:24:05.104Z,10.00
2022-09-24T12:26:37.911Z,17.35
2022-09-24T12:29:25.926Z,8.07
2022-09-24T12:32:22.519Z,7.68
2022-09-24T12:34:59.918Z,8.27
2022-09-24T12:37:34.271Z,7.28
2022-09-24T12:40:53.309Z,8.13
2022-09-24T12:43:28.165Z,7.47
2022-09-24T12:46:04.742Z,10.65
2022-09-24T12:48:36.886Z,7.32
2022-09-24T12:53:41.909Z,7.20
2022-09-24T12:56:10.363Z,5.10
2022-09-24T12:58:44.928Z,4.47
2022-09-24T13:01:26.871Z,5.93
2022-09-24T13:04:15.096Z,4.20
2022-09-24T13:06:43.868Z,4.15
2022-09-24T13:09:35.478Z,4.78
2022-09-24T13:12:18.088Z,8.48
2022-09-24T13:15:08.050Z,6.72
2022-09-24T13:17:38.371Z,7.15
2022-09-24T13:20:28.415Z,7.50
2022-09-24T13:23:31.754Z,3.22
2022-09-24T13:26:02.991Z,4.55
2022-09-24T13:28:38.701Z,7.28
2022-09-24T13:31:21.352Z,3.05
2022-09-24T13:36:35.602Z,4.82
2022-09-24T13:39:21.333Z,5.00
2022-09-24T13:42:06.416Z,6.32
2022-09-24T13:44:40.236Z,6.28
2022-09-24T13:47:27.596Z,8.45
2022-09-24T13:50:03.739Z,4.68
2022-09-24T13:52:38.503Z,8.25
2022-09-24T13:55:17.713Z,5.15
2022-09-24T13:57:46.290Z,7.03
2022-09-24T14:00:16.221Z,3.97
2022-09-24T14:02:53.694Z,4.60
2022-09-24T14:05:22.024Z,4.60
2022-09-24T14:08:06.705Z,5.20
2022-09-24T14:10:33.752Z,4.80
2022-09-24T14:13:22.991Z,3.15
2022-09-24T14:15:55.652Z,3.80
2022-09-24T14:18:23.635Z,4.72
2022-09-24T14:21:12.816Z,7.53
2022-09-24T14:23:48.234Z,6.53
2022-09-24T14:26:32.944Z,6.57
2022-09-24T14:29:03.619Z,6.55
2022-09-24T14:31:30.453Z,3.75
2022-09-24T14:34:01.688Z,7.00
2022-09-24T14:36:29.345Z,6.10
2022-09-24T14:39:02.748Z,6.07
2022-09-24T14:41:31.998Z,7.88
2022-09-24T14:44:03.803Z,7.20
2022-09-24T14:46:48.710Z,5.38
2022-09-24T14:49:27.265Z,3.30
2022-09-24T14:52:01.862Z,6.07
2022-09-24T14:54:35.468Z,7.43
2022-09-24T14:57:16.953Z,4.28
2022-09-24T14:59:44.957Z,5.38
2022-09-24T15:02:17.254Z,6.88
2022-09-24T15:04:50.104Z,5.43
2022-09-24T15:07:24.012Z,4.43
2022-09-24T15:09:53.240Z,4.97
2022-09-24T15:12:30.951Z,6.07
2022-09-24T15:14:57.517Z,3.72
2022-09-24T15:17:29.125Z,6.25
2022-09-24T15:19:57.996Z,3.65
2022-09-24T15:22:29.385Z,5.40
2022-09-24T15:25:01.646Z,5.45
2022-09-24T15:27:31.328Z,7.45
2022-09-24T15:29:59.992Z,8.35
2022-09-24T15:32:32.492Z,5.88
2022-09-24T15:34:59.734Z,6.05
2022-09-24T15:37:28.848Z,6.28
2022-09-24T15:40:05.243Z,6.93
2022-09-24T15:42:31.898Z,4.53
2022-09-24T15:44:58.960Z,7.88
2022-09-24T15:47:25.612Z,7.50
2022-09-24T15:49:52.211Z,7.90
2022-09-24T15:52:27.075Z,6.20
2022-09-24T15:54:55.833Z,12.02
2022-09-24T15:57:26.553Z,19.35
2022-09-24T15:59:53.661Z,12.10
2022-09-24T16:02:24.872Z,7.32
2022-09-24T16:04:52.082Z,7.37
2022-09-24T16:07:19.028Z,7.80
2022-09-24T16:09:45.707Z,9.52
2022-09-24T16:12:15.233Z,15.70
2022-09-24T16:14:41.832Z,12.13
2022-09-24T16:17:08.372Z,9.05
2022-09-24T16:19:35.067Z,8.98
2022-09-24T16:22:01.669Z,8.02
2022-09-24T16:24:32.258Z,7.90
2022-09-24T16:26:59.511Z,8.77
2022-09-24T16:29:26.137Z,11.07
2022-09-24T16:31:52.663Z,12.63
2022-09-24T16:34:19.232Z,8.23
2022-09-24T16:36:45.789Z,7.75
2022-09-24T16:39:12.373Z,8.48
2022-09-24T16:41:39.213Z,9.75
2022-09-24T16:44:06.877Z,8.93
2022-09-24T16:46:33.436Z,7.85
2022-09-24T16:49:00.101Z,12.88
2022-09-24T16:51:26.695Z,6.95
2022-09-24T16:53:56.799Z,10.88
2022-09-24T16:56:24.008Z,6.70
2022-09-24T16:58:51.108Z,9.68
2022-09-24T17:01:20.077Z,11.43
2022-09-24T17:03:57.925Z,6.53
2022-09-24T17:06:27.266Z,14.73
2022-09-24T17:09:13.039Z,8.52
2022-09-24T17:11:40.553Z,9.77
2022-09-24T17:14:13.395Z,8.73
2022-09-24T17:16:39.992Z,7.78
2022-09-24T17:19:08.171Z,7.13
2022-09-24T17:21:38.932Z,7.97
2022-09-24T17:24:06.070Z,9.98
2022-09-24T17:26:32.997Z,8.35
2022-09-24T17:28:59.522Z,10.95
2022-09-24T17:31:26.950Z,10.45
2022-09-24T17:33:58.460Z,11.15
2022-09-24T17:36:26.823Z,5.60
2022-09-24T17:38:53.776Z,11.98
2022-09-24T17:41:20.407Z,10.73
2022-09-24T17:43:48.088Z,7.47
2022-09-24T17:46:17.940Z,8.80
2022-09-24T17:48:46.374Z,8.82
2022-09-24T17:51:16.200Z,5.50
2022-09-24T17:53:43.309Z,8.23
2022-09-24T17:56:12.498Z,9.38
2022-09-24T17:58:44.133Z,6.18
2022-09-24T18:01:14.329Z,15.02
2022-09-24T18:03:41.412Z,9.00
2022-09-24T18:06:11.066Z,9.02
2022-09-24T18:08:42.461Z,8.82
2022-09-24T18:11:10.555Z,7.60
2022-09-24T18:13:37.380Z,7.63
2022-09-24T18:16:09.794Z,6.95
2022-09-24T18:18:36.784Z,5.03
2022-09-24T18:21:05.833Z,10.82
2022-09-24T18:23:35.033Z,9.63
2022-09-24T18:26:11.922Z,9.00
2022-09-24T18:28:58.737Z,5.80
2022-09-24T18:31:28.927Z,5.00
2022-09-24T18:33:58.308Z,8.55
2022-09-24T18:36:28.240Z,8.27
2022-09-24T18:38:56.017Z,6.13
2022-09-24T18:41:24.953Z,7.50
2022-09-24T18:43:53.654Z,9.52
2022-09-24T18:46:22.070Z,8.63
2022-09-24T18:48:50.845Z,7.63
2022-09-24T18:51:23.772Z,5.75
2022-09-24T18:53:55.675Z,11.07
2022-09-24T18:56:24.168Z,7.55
2022-09-24T18:59:09.451Z,7.78
2022-09-24T19:01:37.502Z,5.55
2022-09-24T19:04:05.213Z,6.60
2022-09-24T19:06:34.203Z,9.82
2022-09-24T19:09:00.858Z,8.55
2022-09-24T19:11:28.124Z,6.88
2022-09-24T19:13:54.661Z,9.60
2022-09-24T19:16:23.783Z,8.43
2022-09-24T19:18:51.922Z,11.63
2022-09-24T19:21:19.068Z,13.25
2022-09-24T19:23:50.461Z,10.35
2022-09-24T19:26:22.568Z,9.25
2022-09-24T19:28:53.150Z,11.68
2022-09-24T19:31:22.896Z,10.80
2022-09-24T19:33:50.717Z,10.63
2022-09-24T19:36:17.675Z,7.43
2022-09-24T19:38:44.800Z,7.90
2022-09-24T19:41:14.994Z,6.28
2022-09-24T19:43:43.572Z,7.75
2022-09-24T19:46:12.848Z,10.20
2022-09-24T19:48:41.409Z,8.00
2022-09-24T19:51:12.604Z,8.57
2022-09-24T19:53:39.279Z,7.97
2022-09-24T19:56:07.844Z,7.95
2022-09-24T19:58:34.893Z,4.95
2022-09-24T20:01:06.940Z,10.00
2022-09-24T20:06:11.787Z,9.80
2022-09-24T20:08:39.055Z,6.57
2022-09-24T20:11:07.589Z,8.93
2022-09-24T20:13:34.470Z,17.08
2022-09-24T20:16:03.550Z,13.25
2022-09-24T20:18:31.274Z,9.98
2022-09-24T20:21:05.468Z,16.13
2022-09-24T20:23:32.162Z,11.65
2022-09-24T20:26:17.285Z,11.35
2022-09-24T20:28:44.427Z,9.18
2022-09-24T20:31:15.140Z,12.48
2022-09-24T20:33:43.168Z,9.02
2022-09-24T20:36:16.544Z,11.68
2022-09-24T20:38:46.035Z,10.20
2022-09-24T20:41:15.221Z,12.10
2022-09-24T20:43:41.789Z,12.40
2022-09-24T20:46:14.284Z,15.75
2022-09-24T20:48:40.827Z,9.57
2022-09-24T20:51:12.094Z,13.95
2022-09-24T20:53:39.314Z,12.13
2022-09-24T20:56:06.460Z,11.13
2022-09-24T20:58:33.868Z,14.55
2022-09-24T21:01:01.074Z,11.02
2022-09-24T21:03:43.384Z,12.27
2022-09-24T21:06:12.740Z,12.30
2022-09-24T21:08:41.764Z,12.15
2022-09-24T21:11:13.609Z,10.70
2022-09-24T21:13:42.551Z,14.95
2022-09-24T21:16:10.256Z,14.32
2022-09-24T21:18:40.673Z,16.35
2022-09-24T21:21:15.472Z,9.75
2022-09-24T21:23:47.385Z,11.38
2022-09-24T21:26:15.507Z,16.48
2022-09-24T21:28:43.316Z,12.65
2022-09-24T21:31:10.210Z,13.02
2022-09-24T21:33:36.976Z,11.07
2022-09-24T21:36:05.702Z,13.18
2022-09-24T21:38:33.124Z,15.77
2022-09-24T21:41:01.387Z,16.45
2022-09-24T21:43:33.801Z,12.10
2022-09-24T21:46:05.025Z,12.15
2022-09-24T21:48:32.893Z,12.80
2022-09-24T21:51:07.141Z,11.48
2022-09-24T21:53:34.293Z,17.27
2022-09-24T21:56:02.272Z,13.43
2022-09-24T21:58:29.859Z,12.60
2022-09-24T22:01:00.921Z,14.73
2022-09-24T22:03:30.431Z,13.52
2022-09-24T22:05:59.329Z,18.23
2022-09-24T22:08:29.138Z,14.23
2022-09-24T22:11:07.748Z,11.70
2022-09-24T22:13:36.984Z,13.23
2022-09-24T22:16:05.646Z,16.83
2022-09-24T22:18:33.400Z,14.27
2022-09-24T22:21:04.639Z,15.50
2022-09-24T22:23:31.157Z,14.03
2022-09-24T22:25:59.446Z,13.98
2022-09-24T22:28:27.629Z,20.23
2022-09-24T22:30:59.424Z,16.23
2022-09-24T22:33:48.442Z,18.73
2022-09-24T22:36:15.751Z,14.90
2022-09-24T22:38:42.935Z,12.65
2022-09-24T22:41:11.057Z,16.73
2022-09-24T22:43:39.308Z,14.68
2022-09-24T22:46:08.932Z,15.85
2022-09-24T22:48:35.973Z,19.58
2022-09-24T22:51:04.245Z,12.95
2022-09-24T22:53:34.830Z,16.80
2022-09-24T22:56:10.334Z,13.98
2022-09-24T22:58:38.402Z,18.25
2022-09-24T23:01:09.643Z,13.93
2022-09-24T23:03:37.507Z,14.20
2022-09-24T23:06:08.306Z,17.50
2022-09-24T23:08:36.443Z,14.75
2022-09-24T23:11:07.166Z,15.75
2022-09-24T23:13:34.063Z,13.43
2022-09-24T23:16:10.257Z,16.98
2022-09-24T23:18:37.916Z,13.82
2022-09-24T23:21:10.057Z,13.70
2022-09-24T23:23:37.164Z,13.20
2022-09-24T23:26:16.260Z,12.23
2022-09-24T23:28:44.677Z,12.30
2022-09-24T23:31:14.256Z,11.20
2022-09-24T23:33:42.266Z,11.30
2022-09-24T23:36:11.272Z,14.88
2022-09-24T23:38:38.503Z,11.95
2022-09-24T23:41:06.461Z,14.07
2022-09-24T23:43:33.732Z,15.30
2022-09-24T23:46:01.304Z,16.55
2022-09-24T23:48:28.704Z,12.85
2022-09-24T23:50:55.775Z,15.95
2022-09-24T23:53:22.308Z,13.93
2022-09-24T23:55:49.858Z,12.60
2022-09-24T23:58:20.064Z,16.73
